createdAt,value
2023-04-16T00:00:43.323Z,6.66
2023-04-16T00:03:10.118Z,6.67
2023-04-16T00:05:36.825Z,6.68
2023-04-16T00:08:03.364Z,6.70
2023-04-16T00:10:30.225Z,6.71
2023-04-16T00:12:56.757Z,6.72
2023-04-16T00:15:23.397Z,6.69
2023-04-16T00:17:49.942Z,6.66
2023-04-16T00:20:16.727Z,6.63
2023-04-16T00:22:43.278Z,6.62
2023-04-16T00:25:09.836Z,6.70
2023-04-16T00:27:36.412Z,6.66
2023-04-16T00:30:03.568Z,6.58
2023-04-16T00:32:30.428Z,6.58
2023-04-16T00:34:57.033Z,6.56
2023-04-16T00:37:23.591Z,6.57
2023-04-16T00:39:51.006Z,6.53
2023-04-16T00:42:17.633Z,6.49
2023-04-16T00:44:44.158Z,6.47
2023-04-16T00:47:11.405Z,6.44
2023-04-16T00:49:38.318Z,6.36
2023-04-16T00:52:04.928Z,6.31
2023-04-16T00:54:31.911Z,6.15
2023-04-16T00:56:59.848Z,6.13
2023-04-16T00:59:27.368Z,6.01
2023-04-16T01:01:54.054Z,5.97
2023-04-16T01:04:21.484Z,5.97
2023-04-16T01:06:48.176Z,5.91
2023-04-16T01:09:14.769Z,5.85
2023-04-16T01:11:41.352Z,5.90
2023-04-16T01:14:07.968Z,5.92
2023-04-16T01:16:34.580Z,5.93
2023-04-16T01:19:01.184Z,5.93
2023-04-16T01:21:28.009Z,5.91
2023-04-16T01:23:54.575Z,6.06
2023-04-16T01:26:21.525Z,6.19
2023-04-16T01:28:48.098Z,6.10
2023-04-16T01:31:14.666Z,6.12
2023-04-16T01:33:41.264Z,6.01
2023-04-16T01:36:07.849Z,5.93
2023-04-16T01:38:34.448Z,5.96
2023-04-16T01:41:01.902Z,5.94
2023-04-16T01:43:28.456Z,5.92
2023-04-16T01:46:12.002Z,5.86
2023-04-16T01:48:38.524Z,5.76
2023-04-16T01:51:05.481Z,5.78
2023-04-16T01:53:32.003Z,5.75
2023-04-16T01:55:58.513Z,5.65
2023-04-16T01:58:25.022Z,5.66
2023-04-16T02:00:51.629Z,5.59
2023-04-16T02:03:18.761Z,5.45
2023-04-16T02:05:45.350Z,5.44
2023-04-16T02:08:11.873Z,5.35
2023-04-16T02:10:38.424Z,5.12
2023-04-16T02:13:05.070Z,5.13
2023-04-16T02:15:31.624Z,5.35
2023-04-16T02:17:58.221Z,5.30
2023-04-16T02:20:24.846Z,5.30
2023-04-16T02:22:51.354Z,5.22
2023-04-16T02:25:17.996Z,5.16
2023-04-16T02:27:44.520Z,5.10
2023-04-16T02:30:11.566Z,4.94
2023-04-16T02:32:38.159Z,4.95
2023-04-16T02:35:05.077Z,4.94
2023-04-16T02:37:31.648Z,5.05
2023-04-16T02:39:58.160Z,5.13
2023-04-16T02:42:24.778Z,5.12
2023-04-16T02:44:51.286Z,5.00
2023-04-16T02:47:17.810Z,5.00
2023-04-16T02:49:44.352Z,4.93
2023-04-16T02:52:10.877Z,4.87
2023-04-16T02:54:37.387Z,4.97
2023-04-16T02:57:03.893Z,4.96
2023-04-16T02:59:30.529Z,5.04
2023-04-16T03:01:57.142Z,5.08
2023-04-16T03:04:23.749Z,4.98
2023-04-16T03:06:50.477Z,4.88
2023-04-16T03:09:17.245Z,4.81
2023-04-16T03:11:43.768Z,4.74
2023-04-16T03:14:10.487Z,4.88
2023-04-16T03:16:37.026Z,4.67
2023-04-16T03:19:03.637Z,4.72
2023-04-16T03:21:30.175Z,4.83
2023-04-16T03:23:57.215Z,4.69
2023-04-16T03:26:23.752Z,4.65
2023-04-16T03:28:50.271Z,4.52
2023-04-16T03:31:16.953Z,4.43
2023-04-16T03:33:43.516Z,4.47
2023-04-16T03:36:10.136Z,4.47
2023-04-16T03:38:36.706Z,4.37
2023-04-16T03:41:03.295Z,4.43
2023-04-16T03:43:29.826Z,4.51
2023-04-16T03:45:56.609Z,4.60
2023-04-16T03:48:23.267Z,4.41
2023-04-16T03:50:49.772Z,4.39
2023-04-16T03:53:16.332Z,4.52
2023-04-16T03:55:43.128Z,4.39
2023-04-16T03:58:09.909Z,4.32
2023-04-16T04:00:36.482Z,4.33
2023-04-16T04:03:03.382Z,4.32
2023-04-16T04:05:30.078Z,4.34
2023-04-16T04:07:56.648Z,4.39
2023-04-16T04:10:23.201Z,4.47
2023-04-16T04:12:49.797Z,4.45
2023-04-16T04:15:16.459Z,4.27
2023-04-16T04:17:43.104Z,4.07
2023-04-16T04:20:10.414Z,3.90
2023-04-16T04:22:36.968Z,3.98
2023-04-16T04:25:03.570Z,3.88
2023-04-16T04:27:30.085Z,3.88
2023-04-16T04:29:56.840Z,4.13
2023-04-16T04:32:23.613Z,4.18
2023-04-16T04:34:50.680Z,4.20
2023-04-16T04:37:17.217Z,4.12
2023-04-16T04:39:43.760Z,4.19
2023-04-16T04:42:10.478Z,4.28
2023-04-16T04:44:37.035Z,4.32
2023-04-16T04:47:03.597Z,4.31
2023-04-16T04:49:30.957Z,4.15
2023-04-16T04:51:57.538Z,4.06
2023-04-16T04:54:24.128Z,4.25
2023-04-16T04:56:52.526Z,4.16
2023-04-16T04:59:23.200Z,4.13
2023-04-16T05:01:50.389Z,4.29
2023-04-16T05:04:17.384Z,4.30
2023-04-16T05:06:44.386Z,4.40
2023-04-16T05:09:11.728Z,4.26
2023-04-16T05:11:39.302Z,4.40
2023-04-16T05:14:05.872Z,4.42
2023-04-16T05:16:32.439Z,4.68
2023-04-16T05:18:59.051Z,4.69
2023-04-16T05:21:26.439Z,4.46
2023-04-16T05:23:53.120Z,4.68
2023-04-16T05:26:19.788Z,4.56
2023-04-16T05:28:46.457Z,4.64
2023-04-16T05:31:13.097Z,4.73
2023-04-16T05:33:39.692Z,4.85
2023-04-16T05:36:06.519Z,4.95
2023-04-16T05:38:33.075Z,4.60
2023-04-16T05:40:59.643Z,4.59
2023-04-16T05:43:26.375Z,4.52
2023-04-16T05:45:52.876Z,4.42
2023-04-16T05:48:20.247Z,4.41
2023-04-16T05:50:46.806Z,4.40
2023-04-16T05:53:14.254Z,4.46
2023-04-16T05:55:40.897Z,4.66
2023-04-16T05:58:07.441Z,4.68
2023-04-16T06:00:33.985Z,4.67
2023-04-16T06:03:01.005Z,4.64
2023-04-16T06:05:28.262Z,4.67
2023-04-16T06:07:55.966Z,4.73
2023-04-16T06:10:22.718Z,4.74
2023-04-16T06:12:49.371Z,4.82
2023-04-16T06:15:16.020Z,5.02
2023-04-16T06:17:42.576Z,5.04
2023-04-16T06:20:09.708Z,4.93
2023-04-16T06:22:36.355Z,5.22
2023-04-16T06:25:02.940Z,5.08
2023-04-16T06:27:29.505Z,5.36
2023-04-16T06:29:57.374Z,5.65
2023-04-16T06:32:24.304Z,5.65
2023-04-16T06:34:51.246Z,5.92
2023-04-16T06:37:17.798Z,6.24
2023-04-16T06:39:44.354Z,6.29
2023-04-16T06:42:10.950Z,6.31
2023-04-16T06:44:37.484Z,6.42
2023-04-16T06:47:04.130Z,6.61
2023-04-16T06:49:30.916Z,6.47
2023-04-16T06:51:57.749Z,6.90
2023-04-16T06:54:24.275Z,6.87
2023-04-16T06:56:50.782Z,7.54
2023-04-16T06:59:17.330Z,7.20
2023-04-16T07:01:43.949Z,6.73
2023-04-16T07:04:11.123Z,7.10
2023-04-16T07:06:37.677Z,7.39
2023-04-16T07:09:04.293Z,7.70
2023-04-16T07:11:31.266Z,7.23
2023-04-16T07:13:59.005Z,7.49
2023-04-16T07:16:25.679Z,7.00
2023-04-16T07:18:52.318Z,6.98
2023-04-16T07:21:18.965Z,7.32
2023-04-16T07:23:45.541Z,7.75
2023-04-16T07:26:12.111Z,8.02
2023-04-16T07:28:38.624Z,7.68
2023-04-16T07:31:05.336Z,7.69
2023-04-16T07:33:31.843Z,7.78
2023-04-16T07:35:58.376Z,7.53
2023-04-16T07:38:24.925Z,7.82
2023-04-16T07:40:51.498Z,7.56
2023-04-16T07:43:18.060Z,7.81
2023-04-16T07:45:44.688Z,8.12
2023-04-16T07:48:11.296Z,8.82
2023-04-16T07:50:37.876Z,8.75
2023-04-16T07:53:05.903Z,9.28
2023-04-16T07:55:32.449Z,10.30
2023-04-16T07:57:59.128Z,10.33
2023-04-16T08:00:26.402Z,10.39
2023-04-16T08:02:53.199Z,10.23
2023-04-16T08:05:19.876Z,9.50
2023-04-16T08:07:46.988Z,9.75
2023-04-16T08:10:13.518Z,10.88
2023-04-16T08:12:40.724Z,10.11
2023-04-16T08:15:08.064Z,10.90
2023-04-16T08:17:34.954Z,11.07
2023-04-16T08:20:01.883Z,11.05
2023-04-16T08:22:28.442Z,11.45
2023-04-16T08:24:57.052Z,11.24
2023-04-16T08:27:23.590Z,11.68
2023-04-16T08:29:50.131Z,10.66
2023-04-16T08:32:16.677Z,11.08
2023-04-16T08:34:43.344Z,11.65
2023-04-16T08:37:10.155Z,11.69
2023-04-16T08:39:39.406Z,11.62
2023-04-16T08:42:06.402Z,11.69
2023-04-16T08:44:37.494Z,12.15
2023-04-16T08:47:08.490Z,12.46
2023-04-16T08:49:36.763Z,12.91
2023-04-16T08:52:06.613Z,12.91
2023-04-16T08:54:40.293Z,12.65
2023-04-16T08:57:10.190Z,12.38
2023-04-16T08:59:38.202Z,12.36
2023-04-16T09:02:06.467Z,12.22
2023-04-16T09:04:34.127Z,12.42
2023-04-16T09:07:05.338Z,12.18
2023-04-16T09:09:34.601Z,11.51
2023-04-16T09:12:01.340Z,12.04
2023-04-16T09:14:27.847Z,12.16
2023-04-16T09:16:55.691Z,12.41
2023-04-16T09:19:23.406Z,12.26
2023-04-16T09:21:50.046Z,12.56
2023-04-16T09:24:16.844Z,12.56
2023-04-16T09:26:44.130Z,12.85
2023-04-16T09:29:10.889Z,12.85
2023-04-16T09:31:37.588Z,12.98
2023-04-16T09:34:05.533Z,12.75
2023-04-16T09:36:32.824Z,12.87
2023-04-16T09:39:00.411Z,12.81
2023-04-16T09:41:39.453Z,12.79
2023-04-16T09:44:06.033Z,12.96
2023-04-16T09:46:37.562Z,12.96
2023-04-16T09:49:10.965Z,12.88
2023-04-16T09:51:40.751Z,13.34
2023-04-16T09:54:08.132Z,13.17
2023-04-16T09:56:41.417Z,13.19
2023-04-16T09:59:09.743Z,13.33
2023-04-16T10:01:36.807Z,13.59
2023-04-16T10:04:06.935Z,13.60
2023-04-16T10:06:33.551Z,13.65
2023-04-16T10:09:00.187Z,13.70
2023-04-16T10:11:27.228Z,13.40
2023-04-16T10:13:53.755Z,13.56
2023-04-16T10:16:22.195Z,14.01
2023-04-16T10:18:48.786Z,14.34
2023-04-16T10:21:16.370Z,14.58
2023-04-16T10:23:44.168Z,14.82
2023-04-16T10:26:11.169Z,14.78
2023-04-16T10:28:37.802Z,13.98
2023-04-16T10:31:07.526Z,14.41
2023-04-16T10:33:38.277Z,15.03
2023-04-16T10:36:15.493Z,14.59
2023-04-16T10:38:46.667Z,14.58
2023-04-16T10:41:13.314Z,14.97
2023-04-16T10:43:43.431Z,14.58
2023-04-16T10:46:22.449Z,14.65
2023-04-16T10:48:51.073Z,14.68
2023-04-16T10:51:37.961Z,14.24
2023-04-16T10:54:26.669Z,14.60
2023-04-16T10:56:56.318Z,14.48
2023-04-16T10:59:24.073Z,14.26
2023-04-16T11:01:53.004Z,14.33
2023-04-16T11:04:19.638Z,14.16
2023-04-16T11:07:10.723Z,13.97
2023-04-16T11:10:06.771Z,14.47
2023-04-16T11:12:34.403Z,14.72
2023-04-16T11:15:12.391Z,14.86
2023-04-16T11:17:43.751Z,14.64
2023-04-16T11:20:18.008Z,14.75
2023-04-16T11:22:48.217Z,14.78
2023-04-16T11:25:23.238Z,14.05
2023-04-16T11:27:51.111Z,14.36
2023-04-16T11:30:18.821Z,14.53
2023-04-16T11:32:46.038Z,14.39
2023-04-16T11:35:18.046Z,14.60
2023-04-16T11:37:45.839Z,14.74
2023-04-16T11:40:13.035Z,14.41
2023-04-16T11:42:41.118Z,14.30
2023-04-16T11:45:09.373Z,14.62
2023-04-16T11:48:02.296Z,14.12
2023-04-16T11:50:29.190Z,14.71
2023-04-16T11:52:57.826Z,14.82
2023-04-16T11:55:24.670Z,14.73
2023-04-16T11:57:51.731Z,14.52
2023-04-16T12:00:19.327Z,15.27
2023-04-16T12:02:53.686Z,15.39
2023-04-16T12:05:37.775Z,15.32
2023-04-16T12:08:07.040Z,15.56
2023-04-16T12:10:52.594Z,15.74
2023-04-16T12:13:19.715Z,15.30
2023-04-16T12:15:50.827Z,15.16
2023-04-16T12:18:18.822Z,15.56
2023-04-16T12:20:46.664Z,15.80
2023-04-16T12:23:24.223Z,15.66
2023-04-16T12:25:52.155Z,15.90
2023-04-16T12:28:33.705Z,16.42
2023-04-16T12:31:01.542Z,16.09
2023-04-16T12:33:28.464Z,16.22
2023-04-16T12:35:55.208Z,16.27
2023-04-16T12:38:23.686Z,16.49
2023-04-16T12:40:51.123Z,16.01
2023-04-16T12:43:17.941Z,16.40
2023-04-16T12:45:44.639Z,14.80
2023-04-16T12:48:11.554Z,16.30
2023-04-16T12:50:39.671Z,16.25
2023-04-16T12:53:06.396Z,15.94
2023-04-16T12:55:32.973Z,15.70
2023-04-16T12:57:59.519Z,16.20
2023-04-16T13:00:26.297Z,16.83
2023-04-16T13:02:53.007Z,16.41
2023-04-16T13:05:19.747Z,16.76
2023-04-16T13:07:46.413Z,16.79
2023-04-16T13:10:13.494Z,15.97
2023-04-16T13:12:40.325Z,16.20
2023-04-16T13:15:07.509Z,15.86
2023-04-16T13:17:34.033Z,15.34
2023-04-16T13:20:00.675Z,15.72
2023-04-16T13:22:27.232Z,15.65
2023-04-16T13:24:53.855Z,15.68
2023-04-16T13:27:20.413Z,15.74
2023-04-16T13:29:47.159Z,15.56
2023-04-16T13:32:14.741Z,15.20
2023-04-16T13:34:41.352Z,15.54
2023-04-16T13:37:07.956Z,15.72
2023-04-16T13:39:34.671Z,15.66
2023-04-16T13:42:01.826Z,15.76
2023-04-16T13:44:28.376Z,15.40
2023-04-16T13:46:54.968Z,14.96
2023-04-16T13:49:22.651Z,14.64
2023-04-16T13:51:49.492Z,14.59
2023-04-16T13:54:16.074Z,14.35
2023-04-16T13:56:42.691Z,14.38
2023-04-16T13:59:09.461Z,14.44
2023-04-16T14:01:36.262Z,14.56
2023-04-16T14:04:06.435Z,14.65
2023-04-16T14:06:34.463Z,14.62
2023-04-16T14:09:01.287Z,14.51
2023-04-16T14:11:28.089Z,14.59
2023-04-16T14:13:55.122Z,14.44
2023-04-16T14:16:21.747Z,15.24
2023-04-16T14:18:48.332Z,15.53
2023-04-16T14:21:17.194Z,15.64
2023-04-16T14:23:43.724Z,16.02
2023-04-16T14:26:10.296Z,15.73
2023-04-16T14:28:37.177Z,15.46
2023-04-16T14:31:03.766Z,15.93
2023-04-16T14:33:31.043Z,15.01
2023-04-16T14:35:58.179Z,15.08
2023-04-16T14:38:25.666Z,15.34
2023-04-16T14:40:52.233Z,15.43
2023-04-16T14:43:18.787Z,14.98
2023-04-16T14:45:46.075Z,14.50
2023-04-16T14:48:12.736Z,14.50
2023-04-16T14:50:43.526Z,14.49
2023-04-16T14:53:11.962Z,14.37
2023-04-16T14:55:38.660Z,14.13
2023-04-16T14:58:05.550Z,14.04
2023-04-16T15:00:34.454Z,14.02
2023-04-16T15:03:01.293Z,14.00
2023-04-16T15:05:27.936Z,14.24
2023-04-16T15:07:55.185Z,14.21
2023-04-16T15:10:21.753Z,14.38
2023-04-16T15:12:48.241Z,14.40
2023-04-16T15:15:14.868Z,15.53
2023-04-16T15:17:43.190Z,15.40
2023-04-16T15:20:10.509Z,15.20
2023-04-16T15:22:37.116Z,14.63
2023-04-16T15:25:04.702Z,14.95
2023-04-16T15:27:31.772Z,15.38
2023-04-16T15:29:58.344Z,14.70
2023-04-16T15:32:25.130Z,14.52
2023-04-16T15:34:51.805Z,14.57
2023-04-16T15:37:18.343Z,13.94
2023-04-16T15:39:44.916Z,13.84
2023-04-16T15:42:11.852Z,13.82
2023-04-16T15:44:38.580Z,13.59
2023-04-16T15:47:06.468Z,13.64
2023-04-16T15:49:33.028Z,13.36
2023-04-16T15:51:59.624Z,13.25
2023-04-16T15:54:26.240Z,13.13
2023-04-16T15:56:52.813Z,12.88
2023-04-16T15:59:19.397Z,12.80
2023-04-16T16:01:45.977Z,12.56
2023-04-16T16:04:12.634Z,12.58
2023-04-16T16:06:39.344Z,12.40
2023-04-16T16:09:06.257Z,12.31
2023-04-16T16:11:32.899Z,12.40
2023-04-16T16:14:02.768Z,12.46
2023-04-16T16:16:29.342Z,12.34
2023-04-16T16:18:56.005Z,12.34
2023-04-16T16:21:22.725Z,12.23
2023-04-16T16:23:49.446Z,12.20
2023-04-16T16:26:20.620Z,12.19
2023-04-16T16:28:48.004Z,11.98
2023-04-16T16:31:14.596Z,12.01
2023-04-16T16:33:41.184Z,11.99
2023-04-16T16:36:11.616Z,11.90
2023-04-16T16:38:40.039Z,11.84
2023-04-16T16:41:07.235Z,11.71
2023-04-16T16:43:36.516Z,11.59
2023-04-16T16:46:02.943Z,11.50
2023-04-16T16:48:29.472Z,11.34
2023-04-16T16:50:56.140Z,11.34
2023-04-16T16:53:22.681Z,11.24
2023-04-16T16:55:49.209Z,11.26
2023-04-16T16:58:15.887Z,11.16
2023-04-16T17:00:42.451Z,11.11
2023-04-16T17:03:09.378Z,11.08
2023-04-16T17:05:36.641Z,11.17
2023-04-16T17:08:03.264Z,11.17
2023-04-16T17:10:29.887Z,11.17
2023-04-16T17:12:56.455Z,11.10
2023-04-16T17:15:23.135Z,11.21
2023-04-16T17:17:49.798Z,11.11
2023-04-16T17:20:16.481Z,11.04
2023-04-16T17:22:43.011Z,10.91
2023-04-16T17:25:10.184Z,10.79
2023-04-16T17:27:36.813Z,10.90
2023-04-16T17:30:05.421Z,10.85
2023-04-16T17:32:32.704Z,10.86
2023-04-16T17:35:00.734Z,10.80
2023-04-16T17:37:27.646Z,10.68
2023-04-16T17:39:54.198Z,10.60
2023-04-16T17:42:20.720Z,10.60
2023-04-16T17:44:47.627Z,10.63
2023-04-16T17:47:14.239Z,10.59
2023-04-16T17:49:40.799Z,10.51
2023-04-16T17:52:07.381Z,10.57
2023-04-16T17:54:33.891Z,10.39
2023-04-16T17:57:00.602Z,10.38
2023-04-16T17:59:27.444Z,10.38
2023-04-16T18:01:54.718Z,10.28
2023-04-16T18:04:21.581Z,10.17
2023-04-16T18:06:48.503Z,10.19
2023-04-16T18:09:15.501Z,10.03
2023-04-16T18:11:42.141Z,10.14
2023-04-16T18:14:10.014Z,10.11
2023-04-16T18:16:36.818Z,10.07
2023-04-16T18:19:03.376Z,10.07
2023-04-16T18:21:30.458Z,10.07
2023-04-16T18:23:57.624Z,10.07
2023-04-16T18:26:25.319Z,10.02
2023-04-16T18:28:52.162Z,10.11
2023-04-16T18:31:21.203Z,10.19
2023-04-16T18:33:56.622Z,10.14
2023-04-16T18:36:26.107Z,10.04
2023-04-16T18:39:01.799Z,10.05
2023-04-16T18:41:30.516Z,10.09
2023-04-16T18:43:57.362Z,10.06
2023-04-16T18:46:23.967Z,9.91
2023-04-16T18:48:50.620Z,9.87
2023-04-16T18:51:17.167Z,9.97
2023-04-16T18:53:45.518Z,9.94
2023-04-16T18:56:12.369Z,9.75
2023-04-16T18:58:38.987Z,9.81
2023-04-16T19:01:10.998Z,9.77
2023-04-16T19:03:38.050Z,9.82
2023-04-16T19:06:04.866Z,9.78
2023-04-16T19:08:31.442Z,9.80
2023-04-16T19:10:58.034Z,9.70
2023-04-16T19:13:24.812Z,9.74
2023-04-16T19:15:51.405Z,9.77
2023-04-16T19:18:18.070Z,9.79
2023-04-16T19:20:44.620Z,9.67
2023-04-16T19:23:11.568Z,9.72
2023-04-16T19:25:39.512Z,9.71
2023-04-16T19:28:06.061Z,9.75
2023-04-16T19:30:32.793Z,9.68
2023-04-16T19:32:59.364Z,9.62
2023-04-16T19:35:26.016Z,9.66
2023-04-16T19:37:52.732Z,9.62
2023-04-16T19:40:19.342Z,9.62
2023-04-16T19:42:45.829Z,9.63
2023-04-16T19:45:12.486Z,9.57
2023-04-16T19:47:39.112Z,9.69
2023-04-16T19:50:06.490Z,9.64
2023-04-16T19:52:38.693Z,9.69
2023-04-16T19:55:06.549Z,9.60
2023-04-16T19:57:33.280Z,9.43
2023-04-16T20:00:00.316Z,9.54
2023-04-16T20:02:27.172Z,9.67
2023-04-16T20:04:53.842Z,9.52
2023-04-16T20:07:20.585Z,9.46
2023-04-16T20:09:47.244Z,9.58
2023-04-16T20:12:14.407Z,9.59
2023-04-16T20:14:41.878Z,9.59
2023-04-16T20:17:10.097Z,9.50
2023-04-16T20:19:40.515Z,9.43
2023-04-16T20:22:07.068Z,9.42
2023-04-16T20:24:34.273Z,9.54
2023-04-16T20:27:01.771Z,9.59
2023-04-16T20:29:28.370Z,9.57
2023-04-16T20:31:54.933Z,9.61
2023-04-16T20:34:21.511Z,9.54
2023-04-16T20:36:48.156Z,9.59
2023-04-16T20:39:20.427Z,9.55
2023-04-16T20:41:57.025Z,9.56
2023-04-16T20:44:26.198Z,9.46
2023-04-16T20:46:54.885Z,9.52
2023-04-16T20:49:21.603Z,9.51
2023-04-16T20:51:48.218Z,9.49
2023-04-16T20:54:14.757Z,9.54
2023-04-16T20:56:41.579Z,9.53
2023-04-16T20:59:08.108Z,9.41
2023-04-16T21:01:35.568Z,9.49
2023-04-16T21:04:02.524Z,9.47
2023-04-16T21:06:32.741Z,9.53
2023-04-16T21:08:59.323Z,9.46
2023-04-16T21:11:26.240Z,9.30
2023-04-16T21:13:52.754Z,9.18
2023-04-16T21:16:19.410Z,9.28
2023-04-16T21:18:46.157Z,9.26
2023-04-16T21:21:12.676Z,9.24
2023-04-16T21:23:39.175Z,9.25
2023-04-16T21:26:05.733Z,9.34
2023-04-16T21:28:32.427Z,9.38
2023-04-16T21:30:59.076Z,9.31
2023-04-16T21:33:25.645Z,9.39
2023-04-16T21:35:52.968Z,9.32
2023-04-16T21:38:20.255Z,9.36
2023-04-16T21:40:50.598Z,9.35
2023-04-16T21:43:17.859Z,9.32
2023-04-16T21:45:44.404Z,9.36
2023-04-16T21:48:10.991Z,9.35
2023-04-16T21:50:37.687Z,9.30
2023-04-16T21:53:06.274Z,9.32
2023-04-16T21:55:34.655Z,9.33
2023-04-16T21:58:01.730Z,9.35
2023-04-16T22:00:28.470Z,9.31
2023-04-16T22:02:56.102Z,9.32
2023-04-16T22:05:25.760Z,9.34
2023-04-16T22:07:53.064Z,9.41
2023-04-16T22:10:19.681Z,9.37
2023-04-16T22:12:46.584Z,9.32
2023-04-16T22:15:13.992Z,9.20
2023-04-16T22:17:40.791Z,9.16
2023-04-16T22:20:13.086Z,9.16
2023-04-16T22:22:40.950Z,9.27
2023-04-16T22:25:08.106Z,9.24
2023-04-16T22:27:35.006Z,9.18
2023-04-16T22:30:01.877Z,9.16
2023-04-16T22:32:30.257Z,9.20
2023-04-16T22:34:56.939Z,9.18
2023-04-16T22:37:23.518Z,9.07
2023-04-16T22:39:50.236Z,9.12
2023-04-16T22:42:16.788Z,9.15
2023-04-16T22:44:43.324Z,9.11
2023-04-16T22:47:09.857Z,9.10
2023-04-16T22:49:36.414Z,9.10
2023-04-16T22:52:03.314Z,8.97
2023-04-16T22:54:32.957Z,9.19
2023-04-16T22:57:00.993Z,8.97
2023-04-16T22:59:27.529Z,8.90
2023-04-16T23:01:54.130Z,9.10
2023-04-16T23:04:20.952Z,9.17
2023-04-16T23:06:47.536Z,9.20
2023-04-16T23:09:14.388Z,9.22
2023-04-16T23:11:41.022Z,9.08
2023-04-16T23:14:08.340Z,9.07
2023-04-16T23:16:34.990Z,9.10
2023-04-16T23:19:01.611Z,9.03
2023-04-16T23:21:28.170Z,8.98
2023-04-16T23:23:54.967Z,8.86
2023-04-16T23:26:21.702Z,8.86
2023-04-16T23:28:48.283Z,8.93
2023-04-16T23:31:15.973Z,8.97
2023-04-16T23:33:42.494Z,8.99
2023-04-16T23:36:09.433Z,9.00
2023-04-16T23:38:35.957Z,8.90
2023-04-16T23:41:02.457Z,9.01
2023-04-16T23:43:28.960Z,8.84
2023-04-16T23:45:55.859Z,8.95
2023-04-16T23:48:22.487Z,8.90
2023-04-16T23:50:49.004Z,8.87
2023-04-16T23:53:15.650Z,8.81
2023-04-16T23:55:42.175Z,8.80
2023-04-16T23:58:08.696Z,8.79
